Time;durP1;ratioP1;P1;durP2;ratioP2;P2;SDS_P1;SDS_P2;PMS_P1;PMS_P2;Temp;Humidity;BMP_temperature;BMP_pressure;BME280_temperature;BME280_humidity;BME280_pressure;Samples;Min_cycle;Max_cycle;Signal;HPM_P1;HPM_P2
2021/07/23 00:02:18;;;;;;;11.27;7.22;;;13.70;99.90;;;;;;4948944;28;20431;-96
2021/07/23 00:07:43;;;;;;;11.10;6.83;;;13.70;99.90;;;;;;4978350;23;20449;-96
2021/07/23 00:10:32;;;;;;;12.18;6.95;;;13.60;99.90;;;;;;4969166;28;20447;-96
2021/07/23 00:13:42;;;;;;;11.20;6.93;;;13.60;99.90;;;;;;4973912;28;20443;-96
2021/07/23 00:16:18;;;;;;;15.35;7.82;;;13.50;99.90;;;;;;4987540;23;20475;-96
2021/07/23 00:19:36;;;;;;;;;;;;;;;;;;;;;
2021/07/23 00:22:30;;;;;;;;;;;;;;;;;;;;;
2021/07/23 00:25:27;;;;;;;12.83;7.40;;;13.10;99.90;;;;;;5386452;23;20440;-96
2021/07/23 00:28:00;;;;;;;12.50;7.60;;;13.10;99.90;;;;;;4992012;23;22483;-96
2021/07/23 00:30:49;;;;;;;11.18;7.78;;;13.20;99.90;;;;;;5015261;23;20439;-95
2021/07/23 00:33:22;;;;;;;11.63;8.18;;;13.00;99.90;;;;;;4984001;28;20443;-96
2021/07/23 00:36:01;;;;;;;12.18;7.90;;;13.00;99.90;;;;;;4987660;28;20455;-96
2021/07/23 00:38:46;;;;;;;11.27;7.70;;;12.90;99.90;;;;;;4988268;28;20461;-96
2021/07/23 00:45:15;;;;;;;12.80;7.93;;;12.70;99.90;;;;;;5202261;23;20445;-96
2021/07/23 01:50:00;;;;;;;11.38;6.70;;;13.20;99.90;;;;;;4950069;28;20426;-96
2021/07/23 02:05:13;;;;;;;12.20;7.05;;;13.10;99.90;;;;;;5186884;23;20460;-96
2021/07/23 02:37:08;;;;;;;11.40;7.35;;;13.20;99.90;;;;;;4944613;28;20446;-96
2021/07/23 02:50:23;;;;;;;14.38;7.18;;;12.70;99.90;;;;;;5277896;23;20456;-96
2021/07/23 02:53:14;;;;;;;14.90;7.45;;;12.60;99.90;;;;;;4948881;29;20521;-96
2021/07/23 02:59:45;;;;;;;;;;;;;;;;;;;;;
2021/07/23 03:03:01;;;;;;;12.70;7.03;;;13.00;99.90;;;;;;4968264;28;20460;-96
2021/07/23 03:05:34;;;;;;;14.23;6.78;;;13.10;99.90;;;;;;4950746;29;20442;-96
2021/07/23 03:08:08;;;;;;;12.67;7.07;;;13.10;99.90;;;;;;4953254;28;20493;-96
2021/07/23 03:10:57;;;;;;;17.67;6.70;;;13.10;99.90;;;;;;4947433;29;20441;-96
2021/07/23 03:13:35;;;;;;;15.52;6.95;;;13.10;99.90;;;;;;4949350;29;20430;-96
2021/07/23 03:16:19;;;;;;;14.85;6.88;;;13.20;99.90;;;;;;4972450;23;20441;-96
2021/07/23 03:18:52;;;;;;;10.82;7.00;;;13.40;99.90;;;;;;4974326;23;20492;-96
2021/07/23 03:21:22;;;;;;;14.35;6.75;;;13.40;99.90;;;;;;4964657;28;20444;-96
2021/07/23 03:23:51;;;;;;;12.20;6.65;;;13.30;99.90;;;;;;4968593;28;20440;-96
2021/07/23 03:26:21;;;;;;;12.73;6.67;;;13.20;99.90;;;;;;4964046;28;20478;-96
2021/07/23 03:28:48;;;;;;;15.07;7.57;;;13.20;99.90;;;;;;4961109;28;20453;-96
2021/07/23 03:31:16;;;;;;;16.90;7.05;;;13.10;99.90;;;;;;4964765;28;20525;-96
2021/07/23 03:33:47;;;;;;;13.90;7.18;;;13.10;99.90;;;;;;4962700;28;20430;-96
2021/07/23 03:36:17;;;;;;;12.98;7.28;;;13.10;99.90;;;;;;4992937;23;20438;-96
2021/07/23 03:38:49;;;;;;;11.15;6.75;;;13.20;99.90;;;;;;4967218;28;20472;-96
2021/07/23 03:41:19;;;;;;;18.13;6.80;;;13.30;99.90;;;;;;4971797;23;20434;-96
2021/07/23 03:43:49;;;;;;;10.23;6.65;;;13.30;99.90;;;;;;4961861;28;20473;-96
2021/07/23 03:46:21;;;;;;;14.02;6.60;;;13.40;99.90;;;;;;4992684;23;20416;-96
2021/07/23 03:49:04;;;;;;;13.57;6.85;;;13.50;99.90;;;;;;5130925;23;20395;-96
2021/07/23 03:51:39;;;;;;;11.38;6.70;;;13.50;99.90;;;;;;4985743;28;20404;-96
2021/07/23 03:54:08;;;;;;;11.75;6.63;;;13.60;99.90;;;;;;4984130;28;20432;-96
2021/07/23 03:56:35;;;;;;;13.77;6.93;;;13.60;99.90;;;;;;4982481;28;20436;-96
2021/07/23 03:59:04;;;;;;;12.23;6.22;;;13.50;99.90;;;;;;4979723;28;20427;-96
2021/07/23 04:01:31;;;;;;;11.48;6.60;;;13.60;99.90;;;;;;4983488;28;20442;-96
2021/07/23 04:03:59;;;;;;;11.52;6.70;;;13.60;99.90;;;;;;4985368;28;20519;-96
2021/07/23 04:06:28;;;;;;;9.90;6.00;;;13.60;99.90;;;;;;4982257;28;20534;-96
2021/07/23 04:09:16;;;;;;;9.57;6.65;;;13.70;99.90;;;;;;4986951;28;20823;-96
2021/07/23 04:12:43;;;;;;;10.45;6.18;;;13.80;99.90;;;;;;4998205;23;20653;-96
2021/07/23 04:15:24;;;;;;;10.37;7.40;;;13.70;99.90;;;;;;4999425;23;20440;-96
2021/07/23 04:21:07;;;;;;;14.13;6.07;;;13.60;99.90;;;;;;5003499;23;20428;-96
2021/07/23 04:24:17;;;;;;;11.85;6.50;;;13.80;99.90;;;;;;5009968;23;20441;-95
2021/07/23 04:26:49;;;;;;;11.88;6.25;;;13.90;99.90;;;;;;5004272;23;20860;-96
2021/07/23 04:29:19;;;;;;;14.47;6.10;;;14.00;99.90;;;;;;4991112;23;20444;-96
2021/07/23 04:31:52;;;;;;;10.97;5.83;;;14.00;99.90;;;;;;4983864;28;20428;-96
2021/07/23 04:34:20;;;;;;;11.85;6.32;;;14.00;99.90;;;;;;4990321;23;20424;-96
2021/07/23 04:36:47;;;;;;;11.83;6.07;;;14.20;99.90;;;;;;4982739;28;20446;-96
2021/07/23 04:39:14;;;;;;;12.05;6.43;;;14.20;99.90;;;;;;4997966;28;20400;-96
2021/07/23 04:41:42;;;;;;;12.15;6.57;;;14.30;99.90;;;;;;4982690;28;20418;-96
2021/07/23 04:44:09;;;;;;;13.57;6.63;;;14.40;99.90;;;;;;4961752;28;20437;-96
2021/07/23 04:46:36;;;;;;;15.50;6.65;;;14.40;99.90;;;;;;4963290;28;20476;-95
2021/07/23 04:49:04;;;;;;;8.80;6.07;;;14.40;99.90;;;;;;4972026;23;20508;-96
2021/07/23 04:51:44;;;;;;;14.93;6.53;;;14.50;99.90;;;;;;4964684;28;20429;-95
2021/07/23 04:54:12;;;;;;;12.05;6.30;;;14.50;99.90;;;;;;4972018;23;20420;-96
2021/07/23 04:56:39;;;;;;;10.55;6.20;;;14.60;99.90;;;;;;4964230;28;20436;-96
2021/07/23 04:59:06;;;;;;;12.07;6.65;;;14.70;99.90;;;;;;4974217;23;20445;-96
2021/07/23 05:01:34;;;;;;;12.13;6.75;;;14.70;99.90;;;;;;4966386;28;20420;-96
2021/07/23 05:04:11;;;;;;;11.40;6.50;;;14.80;99.90;;;;;;4968027;28;20426;-96
2021/07/23 05:06:39;;;;;;;11.50;6.57;;;14.80;99.90;;;;;;4973794;23;20532;-96
2021/07/23 05:09:06;;;;;;;11.57;6.63;;;14.80;99.90;;;;;;4965874;28;20505;-96
2021/07/23 05:11:43;;;;;;;11.40;6.72;;;14.80;99.90;;;;;;4971360;23;20533;-96
2021/07/23 05:14:12;;;;;;;9.27;6.75;;;14.80;99.90;;;;;;4964774;28;20433;-96
2021/07/23 05:16:40;;;;;;;8.35;6.15;;;14.80;99.90;;;;;;4964545;28;20429;-96
2021/07/23 05:19:11;;;;;;;11.20;7.10;;;14.90;99.90;;;;;;4965138;28;20448;-96
2021/07/23 05:21:39;;;;;;;11.63;6.78;;;14.90;99.90;;;;;;4965800;28;20477;-94
2021/07/23 05:24:06;;;;;;;11.50;6.88;;;15.00;99.90;;;;;;4965291;28;20434;-95
2021/07/23 05:26:38;;;;;;;10.60;6.85;;;15.00;99.90;;;;;;4965802;28;20451;-96
2021/07/23 05:29:08;;;;;;;11.05;6.80;;;15.00;99.90;;;;;;4964386;28;20430;-96
2021/07/23 05:31:36;;;;;;;11.07;6.60;;;15.10;99.90;;;;;;4964037;29;20520;-96
2021/07/23 05:34:03;;;;;;;11.93;6.65;;;15.20;99.90;;;;;;4966909;28;20405;-96
2021/07/23 05:36:30;;;;;;;10.48;6.20;;;15.20;99.90;;;;;;4966291;28;20425;-95
2021/07/23 05:38:57;;;;;;;11.05;6.85;;;15.20;99.90;;;;;;4967801;28;20432;-95
2021/07/23 05:41:27;;;;;;;12.77;6.65;;;15.20;99.90;;;;;;4966242;28;20837;-96
2021/07/23 05:44:02;;;;;;;9.23;6.47;;;15.30;99.90;;;;;;4966673;28;20430;-95
2021/07/23 05:46:35;;;;;;;13.13;6.50;;;15.50;99.90;;;;;;4967267;29;20424;-96
2021/07/23 05:49:04;;;;;;;11.07;6.65;;;15.50;99.90;;;;;;4963886;28;20432;-96
2021/07/23 05:51:32;;;;;;;11.80;6.72;;;15.60;99.90;;;;;;4965594;28;20467;-96
2021/07/23 05:53:59;;;;;;;11.20;6.30;;;15.80;99.90;;;;;;4966218;28;20468;-96
2021/07/23 05:56:26;;;;;;;7.65;5.85;;;15.90;99.90;;;;;;4960627;28;20913;-95
2021/07/23 05:58:53;;;;;;;8.75;5.93;;;16.30;99.90;;;;;;4962697;28;20460;-96
2021/07/23 06:01:21;;;;;;;7.60;5.70;;;16.80;99.90;;;;;;4962730;28;20422;-96
2021/07/23 06:03:48;;;;;;;11.25;5.22;;;17.30;99.90;;;;;;4961383;28;20444;-94
2021/07/23 06:06:15;;;;;;;9.65;5.20;;;18.50;99.90;;;;;;4960724;28;20483;-96
2021/07/23 06:09:02;;;;;;;11.63;5.50;;;20.00;99.90;;;;;;4963244;28;20512;-96
2021/07/23 06:11:29;;;;;;;6.07;4.53;;;21.50;99.90;;;;;;4962286;28;20438;-95
2021/07/23 06:13:57;;;;;;;8.95;4.72;;;22.70;99.90;;;;;;4965721;28;20416;-94
2021/07/23 06:16:24;;;;;;;9.57;5.10;;;23.70;99.90;;;;;;4963938;28;20428;-93
2021/07/23 06:18:51;;;;;;;8.55;4.75;;;24.40;99.90;;;;;;4970627;28;20401;-94
2021/07/23 06:21:20;;;;;;;8.50;4.43;;;25.20;99.70;;;;;;4975334;28;20449;-93
2021/07/23 06:23:47;;;;;;;9.25;4.63;;;25.60;98.90;;;;;;4961418;28;20505;-93
2021/07/23 06:26:14;;;;;;;8.70;4.50;;;25.70;98.50;;;;;;4963888;28;20436;-93
2021/07/23 06:28:40;;;;;;;8.80;4.50;;;26.30;97.30;;;;;;4963234;28;20484;-93
2021/07/23 06:31:08;;;;;;;5.47;4.50;;;26.50;96.00;;;;;;4964374;28;20929;-93
2021/07/23 06:33:35;;;;;;;9.30;4.10;;;26.90;89.60;;;;;;4961258;29;20417;-93
2021/07/23 06:36:02;;;;;;;6.82;4.22;;;27.00;92.30;;;;;;4960663;29;20429;-94
2021/07/23 06:38:29;;;;;;;12.05;4.30;;;26.80;93.00;;;;;;4960286;28;20443;-94
2021/07/23 06:40:56;;;;;;;11.13;3.90;;;26.70;86.40;;;;;;4960492;28;20434;-92
2021/07/23 06:43:23;;;;;;;5.03;3.85;;;26.90;83.80;;;;;;4960649;28;20429;-93
2021/07/23 06:45:51;;;;;;;9.13;3.95;;;26.90;86.30;;;;;;4961564;28;20433;-93
2021/07/23 06:48:18;;;;;;;7.60;3.95;;;27.10;88.00;;;;;;4960582;28;20505;-93
2021/07/23 06:50:45;;;;;;;9.52;4.10;;;26.30;90.90;;;;;;4958043;29;20511;-94
2021/07/23 06:53:12;;;;;;;6.53;4.40;;;25.80;91.60;;;;;;4958696;28;20434;-93
2021/07/23 06:55:39;;;;;;;9.02;4.20;;;25.50;91.70;;;;;;4959076;29;20521;-95
2021/07/23 06:58:06;;;;;;;9.13;4.78;;;25.10;86.80;;;;;;4961981;28;20433;-93
2021/07/23 07:00:33;;;;;;;5.90;4.87;;;24.90;92.00;;;;;;4967809;28;20434;-93
2021/07/23 07:03:01;;;;;;;8.82;4.43;;;24.70;92.00;;;;;;4973457;23;20480;-93
2021/07/23 07:05:31;;;;;;;9.10;4.70;;;24.50;89.50;;;;;;4963245;28;20445;-92
2021/07/23 07:08:01;;;;;;;15.60;4.80;;;24.20;91.50;;;;;;4962253;28;20426;-93
2021/07/23 07:10:28;;;;;;;7.57;4.40;;;24.10;92.90;;;;;;4964618;28;20429;-93
2021/07/23 07:12:59;;;;;;;12.38;4.30;;;23.90;92.40;;;;;;4963231;29;20422;-93
2021/07/23 07:15:44;;;;;;;8.77;4.82;;;24.00;92.30;;;;;;4962492;28;20430;-93
2021/07/23 07:18:11;;;;;;;9.07;4.40;;;24.00;93.40;;;;;;4968998;23;20433;-93
2021/07/23 07:20:38;;;;;;;7.95;4.97;;;23.90;92.70;;;;;;4949095;29;20412;-93
2021/07/23 07:23:05;;;;;;;8.85;4.85;;;23.50;96.60;;;;;;4972145;23;20421;-93
2021/07/23 07:25:32;;;;;;;11.85;4.72;;;23.50;91.40;;;;;;4964338;28;20517;-95
2021/07/23 07:28:00;;;;;;;15.52;4.32;;;23.60;90.10;;;;;;4961726;28;20492;-94
2021/07/23 07:30:27;;;;;;;10.88;5.00;;;23.40;92.50;;;;;;4973130;23;20546;-93
2021/07/23 07:32:54;;;;;;;7.82;4.80;;;23.20;91.90;;;;;;4963573;28;20441;-92
2021/07/23 07:35:21;;;;;;;11.75;4.78;;;23.00;92.00;;;;;;4966118;28;20409;-92
2021/07/23 07:37:48;;;;;;;14.73;5.77;;;22.80;94.20;;;;;;4965373;28;20417;-95
2021/07/23 07:40:16;;;;;;;13.50;4.80;;;22.70;94.40;;;;;;4962037;29;20473;-93
2021/07/23 07:42:43;;;;;;;9.18;4.93;;;22.70;93.40;;;;;;4963175;28;20430;-93
2021/07/23 07:45:10;;;;;;;9.18;4.90;;;22.40;93.60;;;;;;4976025;23;20410;-95
2021/07/23 07:47:37;;;;;;;9.45;5.18;;;22.20;94.80;;;;;;4978366;28;20438;-94
2021/07/23 07:50:04;;;;;;;10.23;4.95;;;22.30;93.70;;;;;;4978340;28;20432;-96
2021/07/23 07:52:31;;;;;;;8.77;5.30;;;22.20;95.70;;;;;;4978238;28;20427;-95
2021/07/23 07:54:58;;;;;;;8.07;5.00;;;21.70;96.80;;;;;;4979835;28;20504;-95
2021/07/23 07:57:26;;;;;;;10.90;5.00;;;21.80;95.60;;;;;;4977910;28;20467;-94
2021/07/23 07:59:53;;;;;;;9.00;5.20;;;22.00;95.60;;;;;;4987719;28;20440;-94
2021/07/23 08:02:20;;;;;;;8.00;4.73;;;22.10;96.90;;;;;;4998509;28;20426;-94
2021/07/23 08:04:48;;;;;;;13.85;5.15;;;21.60;94.50;;;;;;4986120;28;20428;-93
2021/07/23 08:07:29;;;;;;;9.77;5.07;;;21.40;94.50;;;;;;4976507;28;20440;-96
2021/07/23 08:09:59;;;;;;;8.50;4.75;;;21.30;96.20;;;;;;4976375;28;20428;-96
2021/07/23 08:12:26;;;;;;;10.02;5.03;;;21.50;96.50;;;;;;4976730;28;20428;-96
2021/07/23 08:14:53;;;;;;;9.80;5.20;;;21.70;97.80;;;;;;4982058;28;20428;-96
2021/07/23 08:17:21;;;;;;;12.32;5.03;;;21.50;95.00;;;;;;4958942;28;20830;-91
2021/07/23 08:19:49;;;;;;;9.82;4.97;;;21.30;96.50;;;;;;4976625;28;20424;-92
2021/07/23 08:22:17;;;;;;;8.50;5.10;;;21.20;96.60;;;;;;4975781;28;20487;-92
2021/07/23 08:24:45;;;;;;;11.38;5.18;;;20.90;95.90;;;;;;4975142;28;20424;-89
2021/07/23 08:27:14;;;;;;;10.57;5.23;;;20.90;96.60;;;;;;4977237;28;20446;-95
2021/07/23 08:29:41;;;;;;;8.68;5.60;;;20.90;95.80;;;;;;4976052;28;20424;-95
2021/07/23 08:32:10;;;;;;;12.00;6.03;;;20.90;97.50;;;;;;4975669;28;20935;-96
2021/07/23 08:34:42;;;;;;;11.00;4.95;;;20.80;97.20;;;;;;4975349;28;20428;-94
2021/07/23 08:37:09;;;;;;;9.38;5.57;;;21.00;97.30;;;;;;4976160;28;20424;-95
2021/07/23 08:39:36;;;;;;;126.32;8.23;;;21.00;97.50;;;;;;4975686;28;20435;-96
2021/07/23 08:42:27;;;;;;;12.73;5.70;;;20.90;96.70;;;;;;4965037;28;20421;-95
2021/07/23 08:44:55;;;;;;;8.98;5.55;;;20.90;99.00;;;;;;4956550;28;20430;-95
2021/07/23 08:47:23;;;;;;;9.13;5.85;;;21.10;96.90;;;;;;4955548;28;20514;-95
2021/07/23 08:49:51;;;;;;;8.93;5.80;;;21.10;98.40;;;;;;4955133;28;20422;-96
2021/07/23 08:52:37;;;;;;;9.50;5.25;;;21.00;97.60;;;;;;4955145;28;20430;-95
2021/07/23 08:55:06;;;;;;;10.37;5.60;;;21.20;96.00;;;;;;4955307;29;20422;-95
2021/07/23 08:57:34;;;;;;;11.30;6.00;;;21.30;97.20;;;;;;4955580;28;20432;-95
2021/07/23 09:00:08;;;;;;;13.23;5.38;;;21.40;97.00;;;;;;4955541;28;20436;-96
2021/07/23 09:02:57;;;;;;;22.63;6.00;;;21.80;97.10;;;;;;4956348;28;20425;-96
2021/07/23 09:05:38;;;;;;;10.90;5.30;;;21.70;97.10;;;;;;4957162;29;20429;-95
2021/07/23 09:08:12;;;;;;;11.95;5.50;;;21.50;95.70;;;;;;4955614;28;20436;-96
2021/07/23 09:10:40;;;;;;;16.13;6.18;;;21.80;99.80;;;;;;4955443;28;20434;-95
2021/07/23 09:13:10;;;;;;;9.07;5.45;;;22.00;97.30;;;;;;4956405;28;20505;-96
2021/07/23 09:15:46;;;;;;;10.35;5.75;;;22.10;95.60;;;;;;4956369;28;20455;-95
2021/07/23 09:18:29;;;;;;;10.98;5.50;;;22.00;95.70;;;;;;4957612;28;20445;-95
2021/07/23 09:21:01;;;;;;;12.20;5.75;;;22.20;97.20;;;;;;4957602;28;20442;-96
2021/07/23 09:23:37;;;;;;;8.50;5.40;;;22.40;97.80;;;;;;4955834;28;20776;-95
2021/07/23 09:26:07;;;;;;;14.27;5.53;;;22.10;96.50;;;;;;4955281;28;20442;-95
2021/07/23 09:28:39;;;;;;;11.77;5.83;;;21.70;97.40;;;;;;4956019;28;20429;-95
2021/07/23 09:31:07;;;;;;;11.77;5.28;;;21.60;99.30;;;;;;4954624;28;20436;-95
2021/07/23 09:33:40;;;;;;;8.23;5.65;;;21.90;98.30;;;;;;4954925;28;20517;-96
2021/07/23 09:36:09;;;;;;;12.97;6.03;;;21.80;97.40;;;;;;4955019;28;20433;-96
2021/07/23 09:38:38;;;;;;;9.55;5.78;;;21.60;98.20;;;;;;4955480;28;20440;-95
2021/07/23 09:41:09;;;;;;;13.70;5.40;;;22.00;97.10;;;;;;4968453;28;20496;-96
2021/07/23 09:43:50;;;;;;;9.20;5.38;;;22.50;97.80;;;;;;4979510;28;20457;-96
2021/07/23 09:46:19;;;;;;;10.57;5.35;;;22.70;95.30;;;;;;4961291;28;20460;-96
2021/07/23 09:48:50;;;;;;;15.70;7.10;;;22.80;96.10;;;;;;4966094;28;20425;-96
2021/07/23 09:51:43;;;;;;;11.05;5.60;;;22.90;98.30;;;;;;4968591;29;20449;-96
2021/07/23 09:54:15;;;;;;;11.52;5.68;;;23.00;93.50;;;;;;4969550;28;20426;-96
2021/07/23 10:00:01;;;;;;;10.50;5.93;;;22.40;94.30;;;;;;4969554;29;20442;-96
2021/07/23 10:02:34;;;;;;;10.90;5.78;;;22.00;97.20;;;;;;4970425;28;20441;-96
2021/07/23 10:05:09;;;;;;;10.30;6.07;;;22.40;94.80;;;;;;4969191;28;20794;-96
2021/07/23 10:07:53;;;;;;;9.02;6.00;;;23.00;94.20;;;;;;4959792;28;20517;-96
2021/07/23 10:10:20;;;;;;;15.48;6.72;;;23.40;97.90;;;;;;4958233;28;20436;-96
2021/07/23 10:12:54;;;;;;;11.93;5.57;;;23.40;96.30;;;;;;4962507;28;20436;-96
2021/07/23 10:15:22;;;;;;;10.20;6.13;;;23.20;95.60;;;;;;4960805;28;20434;-96
2021/07/23 10:17:51;;;;;;;9.40;5.88;;;23.30;94.90;;;;;;4958978;28;20429;-96
2021/07/23 10:20:19;;;;;;;7.45;5.70;;;23.50;95.60;;;;;;4957851;28;20513;-96
2021/07/23 10:22:51;;;;;;;23.38;9.38;;;23.50;92.80;;;;;;4958449;28;20430;-96
2021/07/23 10:25:23;;;;;;;17.92;9.18;;;23.20;92.60;;;;;;4957594;28;20426;-95
2021/07/23 10:27:50;;;;;;;9.18;5.93;;;23.30;94.90;;;;;;4959328;28;20445;-96
2021/07/23 10:30:35;;;;;;;10.65;5.68;;;23.50;94.30;;;;;;4960145;28;20494;-96
2021/07/23 10:33:07;;;;;;;9.40;5.78;;;23.80;94.30;;;;;;4962060;28;20468;-96
2021/07/23 10:35:38;;;;;;;15.15;6.85;;;23.80;93.50;;;;;;4996612;23;20409;-95
2021/07/23 10:38:06;;;;;;;27.33;8.73;;;23.70;94.80;;;;;;4982403;28;20439;-95
2021/07/23 10:40:41;;;;;;;9.80;5.53;;;23.80;93.10;;;;;;4980928;28;20436;-96
2021/07/23 10:43:36;;;;;;;17.30;6.18;;;23.50;91.50;;;;;;4960823;28;20429;-96
2021/07/23 10:46:04;;;;;;;8.07;5.38;;;23.30;93.50;;;;;;4965860;29;20437;-96
2021/07/23 10:48:49;;;;;;;11.55;5.63;;;23.10;92.60;;;;;;4971361;28;20442;-96
2021/07/23 10:51:49;;;;;;;8.27;5.88;;;23.00;93.60;;;;;;4968236;28;20450;-96
2021/07/23 10:54:19;;;;;;;14.40;6.07;;;22.90;94.10;;;;;;4969843;28;20460;-96
2021/07/23 10:57:10;;;;;;;15.90;5.90;;;23.20;91.90;;;;;;4974925;23;20447;-96
2021/07/23 10:59:47;;;;;;;10.73;6.50;;;23.50;92.00;;;;;;4986745;23;20441;-95
2021/07/23 11:02:19;;;;;;;21.33;7.53;;;23.20;92.60;;;;;;4979645;23;20481;-96
2021/07/23 11:04:51;;;;;;;8.48;5.68;;;23.20;91.60;;;;;;4970027;28;20945;-96
2021/07/23 11:07:28;;;;;;;9.80;5.82;;;23.20;92.90;;;;;;4974902;23;20442;-96
2021/07/23 11:09:55;;;;;;;10.75;6.40;;;23.10;92.10;;;;;;4974489;23;20454;-96
2021/07/23 11:12:31;;;;;;;21.58;7.70;;;23.30;91.40;;;;;;4968137;28;20426;-96
2021/07/23 11:15:08;;;;;;;12.18;5.95;;;23.10;93.10;;;;;;4965953;28;20426;-96
2021/07/23 11:17:53;;;;;;;10.93;6.13;;;23.10;91.00;;;;;;5042615;23;20442;-94
2021/07/23 11:20:45;;;;;;;28.25;7.65;;;23.30;91.90;;;;;;4982722;23;20468;-96
2021/07/23 11:23:16;;;;;;;11.30;5.37;;;23.50;93.40;;;;;;4978778;28;20497;-95
2021/07/23 11:26:34;;;;;;;9.23;5.75;;;23.80;91.50;;;;;;4978414;28;20405;-96
2021/07/23 11:29:04;;;;;;;18.77;6.82;;;23.60;91.80;;;;;;4978225;23;20442;-95
2021/07/23 11:31:34;;;;;;;8.30;5.70;;;24.00;92.90;;;;;;4962474;28;20434;-96
2021/07/23 11:34:25;;;;;;;10.27;6.20;;;24.20;85.30;;;;;;4966717;28;20430;-96
2021/07/23 11:37:09;;;;;;;10.40;6.03;;;24.30;92.60;;;;;;4965802;29;20445;-96
2021/07/23 11:43:29;;;;;;;9.18;5.82;;;24.20;93.30;;;;;;4970100;28;20429;-96
2021/07/23 11:45:56;;;;;;;8.80;6.00;;;24.50;91.80;;;;;;4974254;28;20426;-95
2021/07/23 11:48:32;;;;;;;35.20;11.63;;;24.60;90.90;;;;;;4973709;28;20532;-96
2021/07/23 11:51:00;;;;;;;9.52;5.60;;;24.50;90.50;;;;;;5003988;23;20431;-96
2021/07/23 11:53:28;;;;;;;24.15;6.50;;;24.70;86.60;;;;;;4979086;28;20430;-96
2021/07/23 11:55:59;;;;;;;60.75;7.60;;;25.00;88.10;;;;;;4985560;23;20428;-96
2021/07/23 11:58:31;;;;;;;12.45;5.90;;;25.40;92.20;;;;;;4982471;28;20430;-96
2021/07/23 12:00:58;;;;;;;28.52;6.40;;;25.90;90.40;;;;;;4980216;28;20452;-96
2021/07/23 12:03:27;;;;;;;16.20;7.28;;;26.10;91.50;;;;;;4980429;28;20465;-95
2021/07/23 12:06:14;;;;;;;11.45;6.07;;;26.30;89.20;;;;;;4979599;28;20428;-95
2021/07/23 12:14:09;;;;;;;8.02;5.72;;;26.30;84.90;;;;;;4977943;23;20436;-96
2021/07/23 12:16:57;;;;;;;11.43;5.95;;;26.40;80.00;;;;;;5128305;23;20522;-96
2021/07/23 12:20:15;;;;;;;10.65;5.78;;;26.50;80.50;;;;;;5015519;23;20514;-96
2021/07/23 12:45:05;;;;;;;12.48;5.93;;;27.40;78.30;;;;;;3254772;23;22104;-95
2021/07/23 12:48:36;;;;;;;;;;;;;;;;;;;;;
2021/07/23 13:27:56;;;;;;;8.98;5.93;;;29.30;66.80;;;;;;5788857;23;20469;-95
2021/07/23 13:30:23;;;;;;;9.27;5.30;;;29.00;68.30;;;;;;4962401;29;20434;-96
2021/07/23 13:32:52;;;;;;;8.85;5.80;;;29.20;70.40;;;;;;4961929;29;20492;-96
2021/07/23 13:35:22;;;;;;;9.13;5.72;;;29.30;72.90;;;;;;4964190;28;20751;-96
2021/07/23 13:37:59;;;;;;;13.80;5.63;;;29.20;70.70;;;;;;4961895;29;20421;-96
2021/07/23 14:30:51;;;;;;;9.82;5.68;;;31.70;61.30;;;;;;5594202;23;20487;-96
2021/07/23 14:34:27;;;;;;;9.80;5.80;;;31.60;57.50;;;;;;5545701;23;20435;31
2021/07/23 14:36:59;;;;;;;7.40;5.50;;;30.30;58.90;;;;;;4909266;29;20472;-96
2021/07/23 14:41:56;;;;;;;10.07;5.70;;;30.90;61.20;;;;;;5190896;23;20504;-96
2021/07/23 14:47:19;;;;;;;8.23;5.57;;;31.60;59.30;;;;;;4949578;28;20448;-91
2021/07/23 14:49:47;;;;;;;10.27;5.90;;;31.60;62.80;;;;;;4938913;29;20490;-91
2021/07/23 14:52:15;;;;;;;10.38;5.70;;;31.70;64.20;;;;;;4922433;29;21010;-94
2021/07/23 14:54:42;;;;;;;10.05;5.80;;;32.00;58.80;;;;;;4925407;29;20434;-93
2021/07/23 14:57:09;;;;;;;9.60;5.97;;;31.70;61.00;;;;;;4921569;29;20854;-92
2021/07/23 14:59:36;;;;;;;7.47;5.77;;;31.20;56.60;;;;;;4922233;29;20454;-92
2021/07/23 15:02:04;;;;;;;9.77;5.93;;;30.30;60.70;;;;;;4922132;29;20423;-94
2021/07/23 15:04:31;;;;;;;11.40;6.23;;;30.20;58.90;;;;;;4922859;29;20458;-92
2021/07/23 15:06:58;;;;;;;13.80;6.13;;;30.00;58.90;;;;;;4922645;29;20446;-92
2021/07/23 15:09:25;;;;;;;9.60;5.80;;;30.00;62.30;;;;;;4921914;29;20490;-93
2021/07/23 15:11:52;;;;;;;11.93;5.70;;;30.40;58.30;;;;;;4921462;29;20502;-94
2021/07/23 15:14:19;;;;;;;11.00;5.72;;;30.70;58.70;;;;;;4921659;29;20970;-93
2021/07/23 15:16:46;;;;;;;12.07;6.35;;;30.90;59.20;;;;;;4921950;29;20435;-94
2021/07/23 15:19:22;;;;;;;11.00;5.63;;;31.00;56.30;;;;;;4922428;29;20436;-90
2021/07/23 15:21:57;;;;;;;10.18;5.68;;;30.90;60.20;;;;;;4921960;29;20472;-90
2021/07/23 15:30:42;;;;;;;12.60;6.10;;;30.70;58.20;;;;;;1550854;23;20612;-96
2021/07/23 15:33:38;;;;;;;8.80;5.93;;;30.70;60.00;;;;;;4919246;29;20429;-94
2021/07/23 15:36:05;;;;;;;11.87;5.90;;;30.50;59.10;;;;;;4909217;29;20429;-90
2021/07/23 16:01:06;;;;;;;12.07;6.17;;;29.50;57.60;;;;;;5154327;23;20435;-93
2021/07/23 16:03:33;;;;;;;13.45;5.90;;;29.30;60.20;;;;;;4959280;28;20440;-92
2021/07/23 16:06:00;;;;;;;17.92;6.32;;;29.70;59.80;;;;;;4960418;28;20430;-94
2021/07/23 16:08:39;;;;;;;10.18;5.85;;;30.00;59.00;;;;;;4961762;28;20446;-93
2021/07/23 16:11:10;;;;;;;10.63;6.00;;;30.50;60.00;;;;;;4966688;28;20522;-89
2021/07/23 16:13:41;;;;;;;10.15;5.85;;;30.40;59.10;;;;;;4966055;28;20424;-91
2021/07/23 16:16:08;;;;;;;9.70;5.90;;;30.30;56.40;;;;;;4959930;28;20495;-91
2021/07/23 16:18:35;;;;;;;15.88;6.22;;;30.20;60.40;;;;;;4959272;28;20432;-95
2021/07/23 16:21:02;;;;;;;13.07;6.57;;;30.20;58.30;;;;;;4960373;28;20424;-95
2021/07/23 16:23:29;;;;;;;11.20;5.72;;;30.30;57.40;;;;;;4960280;28;20494;-92
2021/07/23 16:25:59;;;;;;;9.32;5.88;;;30.10;61.20;;;;;;4980259;28;20475;-90
2021/07/23 16:28:35;;;;;;;10.85;5.88;;;30.20;62.80;;;;;;4987998;28;20514;-90
2021/07/23 16:31:20;;;;;;;9.25;5.85;;;30.30;62.50;;;;;;4978549;28;20416;-95
2021/07/23 16:33:47;;;;;;;9.70;5.70;;;30.20;60.00;;;;;;4959746;28;20424;-94
2021/07/23 16:36:18;;;;;;;9.43;5.68;;;30.10;57.70;;;;;;4961492;28;20458;-92
2021/07/23 16:38:49;;;;;;;21.92;6.28;;;30.10;59.80;;;;;;4960384;28;20428;-93
2021/07/23 16:41:16;;;;;;;18.30;6.27;;;29.90;62.30;;;;;;4954490;28;20459;-89
2021/07/23 16:43:43;;;;;;;87.47;8.05;;;29.80;61.90;;;;;;4939482;29;20913;-94
2021/07/23 16:46:10;;;;;;;17.52;6.60;;;29.40;59.90;;;;;;4940279;29;20465;-89
2021/07/23 16:48:37;;;;;;;10.70;6.30;;;29.20;57.90;;;;;;4940368;28;20445;-92
2021/07/23 16:51:04;;;;;;;12.90;6.22;;;29.00;61.10;;;;;;4938534;29;20421;-92
2021/07/23 16:53:31;;;;;;;10.52;6.40;;;28.90;60.40;;;;;;4939681;29;20434;-90
2021/07/23 16:55:58;;;;;;;10.80;6.30;;;29.00;59.40;;;;;;4939817;29;20498;-91
2021/07/23 16:58:25;;;;;;;9.30;6.15;;;29.00;59.80;;;;;;4939452;29;20929;-93
2021/07/23 17:00:52;;;;;;;12.00;6.50;;;28.90;59.20;;;;;;4953030;28;20426;-93
2021/07/23 17:03:20;;;;;;;9.77;6.05;;;28.70;60.60;;;;;;4957810;28;20485;-95
2021/07/23 17:05:47;;;;;;;9.80;6.10;;;28.60;62.60;;;;;;4956942;28;20430;-94
2021/07/23 17:08:15;;;;;;;9.18;6.43;;;28.40;61.60;;;;;;4956514;28;20797;-94
2021/07/23 17:10:47;;;;;;;35.40;10.25;;;28.20;62.30;;;;;;4955180;28;20437;-94
2021/07/23 17:13:14;;;;;;;25.33;8.95;;;28.00;61.20;;;;;;4956976;29;20901;-95
2021/07/23 17:15:41;;;;;;;13.05;6.90;;;27.90;62.50;;;;;;4956264;28;20436;-95
2021/07/23 17:18:08;;;;;;;11.35;6.95;;;27.90;66.60;;;;;;4959542;28;20449;-96
2021/07/23 17:20:36;;;;;;;10.23;6.38;;;27.70;63.40;;;;;;4957273;28;20505;-96
2021/07/23 17:23:06;;;;;;;9.53;6.60;;;27.60;67.40;;;;;;4960011;28;20480;-96
2021/07/23 17:25:34;;;;;;;13.02;6.60;;;27.30;65.10;;;;;;4957584;29;20475;-96
2021/07/23 17:28:01;;;;;;;14.18;6.57;;;27.20;64.60;;;;;;4957294;28;20496;-96
2021/07/23 17:30:29;;;;;;;9.95;6.20;;;27.20;69.00;;;;;;4956132;28;20434;-96
2021/07/23 17:32:56;;;;;;;11.07;6.38;;;27.20;66.70;;;;;;4955417;28;20429;-94
2021/07/23 17:35:23;;;;;;;10.30;6.25;;;27.10;67.10;;;;;;4954904;28;20436;-95
2021/07/23 17:37:51;;;;;;;11.55;6.72;;;26.80;70.30;;;;;;4956318;28;20426;-95
2021/07/23 17:40:18;;;;;;;10.85;6.38;;;26.50;71.90;;;;;;4958442;28;20436;-96
2021/07/23 17:42:50;;;;;;;13.20;6.10;;;26.40;74.60;;;;;;4956053;28;20924;-96
2021/07/23 17:47:49;;;;;;;10.38;6.57;;;26.20;73.60;;;;;;4955656;29;20909;-95
2021/07/23 17:50:17;;;;;;;12.18;6.65;;;25.90;72.70;;;;;;4954224;28;21062;-96
2021/07/23 17:52:44;;;;;;;12.45;6.35;;;25.70;69.90;;;;;;4954486;28;20908;-94
2021/07/23 17:55:12;;;;;;;12.55;6.30;;;25.30;74.90;;;;;;4955274;28;20798;-95
2021/07/23 17:57:39;;;;;;;10.23;6.88;;;25.10;77.00;;;;;;4954514;28;20432;-95
2021/07/23 18:00:12;;;;;;;10.00;6.50;;;24.60;77.00;;;;;;4954864;28;20426;-95
2021/07/23 18:02:56;;;;;;;12.25;6.60;;;24.50;77.00;;;;;;4941025;29;20429;-93